Etusivu
METAR-TAF:

METAR-TAF

Lentoasemat :

Tindouf, Algeria

Leveyspiiri: 27-40N, Pituuspiiri: 008-08W, korkeus merenpinnasta: 431 m

Tämänhetkinen sää

Tämä raportti tehtiin 10 minuuttia sitten, kello 15.00 UTC
Tuuli 12 kn lännestä/luoteesta
Lämpötila 34°C
Kosteus 13%
Ilmanpaine 1011 hPa
Näkyvyys 10 km tai enemmän
ei pilviä alle 1500 m:ssä eikä cumulonimbus-pilviä

METAR: DAOF 121500Z 29012KT CAVOK 34/02 Q1011

Aika: 16:10 (15:10 UTC)

Sääennuste

Tämä raportti tehtiin 1 tunti ja 10 minuuttia sitten, kello 14.00 UTC
Ennuste voimassa 12. päivästä klo 15 UTC - 12. päivään klo 24 UTC
Tuuli 8 kn lännestä
Näkyvyys 10 km tai enemmän
ei pilviä alle 1500 m:ssä eikä cumulonimbus-pilviä

TAF: DAOF 121400Z 1215/1224 28008KT CAVOK

Säähavainnot ja -ennusteet yli 4000 lentoasemalta (METAR- ja TAF-raportit).

Käytössä olevat sääasemat on merkitty karttaan keltaisilla ja punaisilla pisteillä.

Aseta hiiri pisteen päälle nähdäksesi sääaseman nimen.

Klikkaa sitten nähdäksesi säähavainnot ja -ennusteet.

Kartan vaihtaminen: klikkaa mustalla rastilla varustettuja vihreitä pisteitä, niin voit zoomata sisään; viivalla varustettua vihreää pistettä, niin voit zoomata ulos tai vihreitä nuolia, niin pääset viereisille kartoille.


METAR-TAF: